Time;durP1;ratioP1;P1;durP2;ratioP2;P2;SDS_P1;SDS_P2;PMS_P1;PMS_P2;Temp;Humidity;BMP_temperature;BMP_pressure;BME280_temperature;BME280_humidity;BME280_pressure;Samples;Min_cycle;Max_cycle;Signal;HPM_P1;HPM_P2
2022/05/09 00:02:11;;;;;;;2.03;1.13;;;12.00;74.40;;;;;;5053718;28;20033;-82
2022/05/09 00:04:37;;;;;;;2.50;1.30;;;12.00;74.40;;;;;;5050773;28;20032;-84
2022/05/09 00:07:04;;;;;;;4.70;2.00;;;11.90;75.00;;;;;;5028878;28;20025;-82
2022/05/09 00:09:29;;;;;;;2.88;1.60;;;11.80;75.20;;;;;;5043029;28;20156;-83
2022/05/09 00:11:55;;;;;;;3.60;1.58;;;11.80;75.30;;;;;;5035251;28;20100;-81
2022/05/09 00:14:20;;;;;;;4.15;1.60;;;11.70;76.00;;;;;;5058210;28;20024;-82
2022/05/09 00:16:47;;;;;;;3.28;1.40;;;11.70;77.10;;;;;;5050787;28;20477;-83
2022/05/09 00:19:17;;;;;;;6.88;2.25;;;11.60;78.00;;;;;;5035445;28;20022;-82
2022/05/09 00:21:43;;;;;;;3.08;1.33;;;11.60;78.40;;;;;;5041918;28;20112;-81
2022/05/09 00:24:13;;;;;;;2.85;1.50;;;11.50;78.20;;;;;;5046822;28;20112;-83
2022/05/09 00:26:39;;;;;;;2.65;1.80;;;11.50;78.80;;;;;;5034807;28;20030;-82
2022/05/09 00:29:06;;;;;;;3.85;1.50;;;11.50;78.30;;;;;;5040199;28;20469;-82
2022/05/09 00:31:32;;;;;;;6.65;1.17;;;11.40;79.30;;;;;;5059923;28;20056;-83
2022/05/09 00:33:57;;;;;;;6.38;1.60;;;11.40;79.20;;;;;;5043357;28;20055;-83
2022/05/09 00:36:23;;;;;;;3.58;1.55;;;11.30;79.60;;;;;;5045324;28;20030;-83
2022/05/09 00:38:50;;;;;;;5.20;2.45;;;11.30;80.20;;;;;;5052246;28;20040;-82
2022/05/09 00:41:28;;;;;;;5.20;1.50;;;11.30;80.00;;;;;;5042896;28;20026;-84
2022/05/09 00:43:55;;;;;;;2.92;1.40;;;11.20;80.20;;;;;;5052686;28;20498;-82
2022/05/09 00:46:21;;;;;;;8.93;1.98;;;11.20;79.50;;;;;;5033754;28;20389;-81
2022/05/09 00:48:47;;;;;;;2.92;1.38;;;11.20;79.10;;;;;;5039433;28;20117;-81
2022/05/09 00:51:15;;;;;;;3.42;1.30;;;11.20;79.40;;;;;;5036465;28;20029;-81
2022/05/09 00:53:41;;;;;;;8.27;2.08;;;11.10;80.00;;;;;;5044796;28;20071;-83
2022/05/09 00:56:13;;;;;;;3.28;1.52;;;11.10;80.10;;;;;;5044813;28;20425;-82
2022/05/09 00:58:43;;;;;;;4.00;1.80;;;11.10;79.20;;;;;;5062069;28;20028;-82
2022/05/09 01:01:11;;;;;;;8.98;1.65;;;11.10;78.90;;;;;;5044309;28;20033;-81
2022/05/09 01:03:47;;;;;;;3.80;1.38;;;11.10;78.60;;;;;;5053369;28;20370;-82
2022/05/09 01:06:12;;;;;;;2.80;1.48;;;11.00;78.20;;;;;;5039159;28;20025;-82
2022/05/09 01:08:38;;;;;;;5.22;1.90;;;11.00;78.90;;;;;;5062732;28;20381;-81
2022/05/09 01:11:09;;;;;;;2.40;1.52;;;11.00;78.70;;;;;;5038259;28;20029;-84
2022/05/09 01:13:39;;;;;;;5.00;1.83;;;11.00;78.80;;;;;;5050244;28;20020;-82
2022/05/09 01:16:05;;;;;;;3.35;1.63;;;11.00;78.90;;;;;;5035318;28;20036;-82
2022/05/09 01:18:31;;;;;;;3.05;1.70;;;10.90;79.20;;;;;;5048222;28;20104;-82
2022/05/09 01:20:57;;;;;;;2.30;1.20;;;10.90;79.20;;;;;;5040013;28;20071;-82
2022/05/09 01:23:22;;;;;;;3.17;1.50;;;10.90;79.10;;;;;;5046711;28;20026;-81
2022/05/09 01:25:48;;;;;;;2.80;1.55;;;10.90;78.90;;;;;;5038054;28;20038;-83
2022/05/09 01:28:14;;;;;;;2.95;1.67;;;10.80;79.00;;;;;;5041589;28;20029;-82
2022/05/09 01:30:56;;;;;;;3.67;1.80;;;10.80;79.30;;;;;;5035720;28;20068;-82
2022/05/09 01:33:36;;;;;;;3.00;1.00;;;10.70;79.70;;;;;;5040893;28;20032;-84
2022/05/09 01:36:09;;;;;;;4.45;2.08;;;10.70;79.80;;;;;;5042435;28;20052;-83
2022/05/09 01:38:54;;;;;;;2.90;1.30;;;10.70;79.70;;;;;;5040983;28;20022;-81
2022/05/09 01:41:19;;;;;;;4.30;1.80;;;10.60;79.70;;;;;;5033349;28;20428;-81
2022/05/09 01:43:51;;;;;;;3.38;1.60;;;10.60;79.90;;;;;;5044476;28;20037;-81
2022/05/09 01:46:23;;;;;;;2.08;1.35;;;10.50;79.70;;;;;;5041527;28;20091;-81
2022/05/09 01:51:38;;;;;;;2.03;1.30;;;10.50;80.20;;;;;;5036164;28;20040;-82
2022/05/09 01:54:04;;;;;;;3.17;1.40;;;10.40;80.40;;;;;;5038487;28;20413;-81
2022/05/09 01:56:33;;;;;;;3.92;1.23;;;10.40;80.30;;;;;;5043725;28;20079;-81
2022/05/09 01:58:59;;;;;;;10.23;1.80;;;10.30;80.50;;;;;;5059196;28;20411;-82
2022/05/09 02:01:28;;;;;;;3.08;1.02;;;10.30;81.10;;;;;;5040969;28;20029;-82
2022/05/09 02:03:55;;;;;;;3.50;1.90;;;10.30;81.40;;;;;;5043211;28;20025;-85
2022/05/09 02:06:21;;;;;;;6.25;2.20;;;10.20;82.00;;;;;;5048343;28;20036;-83
2022/05/09 02:08:47;;;;;;;3.65;1.77;;;10.20;82.20;;;;;;5048497;28;20025;-81
2022/05/09 02:11:13;;;;;;;2.83;1.40;;;10.20;83.00;;;;;;5054751;28;20056;-83
2022/05/09 02:13:39;;;;;;;3.88;1.75;;;10.10;83.20;;;;;;5046929;28;20041;-82
2022/05/09 02:16:05;;;;;;;3.65;1.88;;;10.10;83.10;;;;;;5067478;28;20107;-82
2022/05/09 02:18:35;;;;;;;4.90;1.80;;;10.10;83.00;;;;;;5047638;28;20018;-81
2022/05/09 02:21:01;;;;;;;3.75;1.40;;;10.00;83.20;;;;;;5043553;28;20030;-82
2022/05/09 02:23:26;;;;;;;5.72;2.28;;;10.00;83.60;;;;;;5036991;28;20032;-82
2022/05/09 02:25:53;;;;;;;1.80;1.27;;;10.00;83.90;;;;;;5047852;28;20079;-83
2022/05/09 02:28:20;;;;;;;6.55;2.03;;;9.90;83.70;;;;;;5031457;28;20032;-81
2022/05/09 02:30:45;;;;;;;3.58;1.63;;;9.90;83.90;;;;;;5047081;28;20052;-82
2022/05/09 02:33:11;;;;;;;4.50;1.40;;;9.90;83.70;;;;;;5055802;28;20060;-83
2022/05/09 02:35:38;;;;;;;5.00;2.35;;;9.80;83.70;;;;;;5049591;28;20036;-81
2022/05/09 02:38:04;;;;;;;3.50;1.55;;;9.80;83.80;;;;;;5039266;28;20030;-82
2022/05/09 02:40:30;;;;;;;4.78;1.98;;;9.80;84.70;;;;;;5040148;28;20040;-82
2022/05/09 02:42:57;;;;;;;3.92;1.77;;;9.70;84.50;;;;;;5056326;28;20024;-82
2022/05/09 02:45:23;;;;;;;3.15;1.98;;;9.70;85.00;;;;;;5048286;28;20049;-81
2022/05/09 02:47:49;;;;;;;2.75;1.40;;;9.70;85.30;;;;;;5049802;28;20461;-82
2022/05/09 02:50:16;;;;;;;6.75;1.70;;;9.60;85.30;;;;;;5056012;28;20028;-81
2022/05/09 02:52:42;;;;;;;4.43;1.63;;;9.60;85.40;;;;;;5042627;28;20017;-85
2022/05/09 02:55:09;;;;;;;9.70;1.67;;;9.60;85.80;;;;;;5050002;28;20036;-84
2022/05/09 02:57:36;;;;;;;3.60;1.50;;;9.60;86.00;;;;;;5058058;28;20465;-82
2022/05/09 03:00:06;;;;;;;6.90;1.95;;;9.50;86.10;;;;;;5040170;28;20025;-82
2022/05/09 03:02:31;;;;;;;4.75;2.05;;;9.50;86.90;;;;;;5037456;28;20033;-84
2022/05/09 03:04:57;;;;;;;3.60;1.60;;;9.50;86.70;;;;;;5052802;28;20037;-81
2022/05/09 03:07:22;;;;;;;5.50;1.90;;;9.50;86.90;;;;;;5038039;28;20556;-81
2022/05/09 03:09:49;;;;;;;2.78;1.65;;;9.50;87.30;;;;;;5036956;28;20041;-84
2022/05/09 03:12:18;;;;;;;3.42;1.60;;;9.40;86.80;;;;;;5033310;28;20056;-82
2022/05/09 03:14:44;;;;;;;5.10;1.80;;;9.40;87.00;;;;;;5056244;28;20520;-82
2022/05/09 03:17:11;;;;;;;8.15;2.13;;;9.40;87.20;;;;;;5038960;28;20474;-82
2022/05/09 03:19:37;;;;;;;5.22;1.90;;;9.40;87.50;;;;;;5035591;28;20025;-82
2022/05/09 03:22:03;;;;;;;6.90;2.17;;;9.30;87.60;;;;;;5059504;28;20031;-82
2022/05/09 03:24:28;;;;;;;5.75;2.63;;;9.30;87.90;;;;;;5040150;28;20100;-82
2022/05/09 03:26:54;;;;;;;2.97;1.55;;;9.30;88.50;;;;;;5045151;28;20067;-83
2022/05/09 03:29:20;;;;;;;5.50;1.92;;;9.30;88.40;;;;;;5043919;28;20040;-83
2022/05/09 03:31:47;;;;;;;3.13;1.80;;;9.20;88.80;;;;;;5036965;28;20022;-81
2022/05/09 03:34:14;;;;;;;3.97;1.52;;;9.20;88.90;;;;;;5034246;28;20742;-81
2022/05/09 03:36:40;;;;;;;3.42;2.05;;;9.20;89.10;;;;;;5040095;28;20053;-83
2022/05/09 03:39:06;;;;;;;6.75;2.30;;;9.20;89.60;;;;;;5039495;28;20533;-81
2022/05/09 03:41:32;;;;;;;6.22;1.77;;;9.20;89.70;;;;;;5051203;28;20048;-85
2022/05/09 03:43:57;;;;;;;3.28;1.70;;;9.10;89.90;;;;;;5038326;28;20055;-81
2022/05/09 03:46:23;;;;;;;3.38;2.00;;;9.10;89.90;;;;;;5059380;28;20485;-82
2022/05/09 03:48:48;;;;;;;3.85;1.85;;;9.10;90.10;;;;;;5047561;28;20359;-84
2022/05/09 03:51:14;;;;;;;3.88;2.08;;;9.10;90.20;;;;;;5029562;28;20525;-82
2022/05/09 03:53:40;;;;;;;2.47;1.77;;;9.10;90.50;;;;;;5043235;28;20040;-81
2022/05/09 03:56:07;;;;;;;4.35;1.60;;;9.10;90.50;;;;;;5039630;28;20024;-81
2022/05/09 03:58:32;;;;;;;4.07;2.40;;;9.10;90.60;;;;;;5037636;28;20029;-83
2022/05/09 04:00:58;;;;;;;9.88;2.97;;;9.10;90.60;;;;;;5030557;28;20493;-82
2022/05/09 04:03:23;;;;;;;5.88;2.13;;;9.10;90.70;;;;;;5050893;28;20021;-82
2022/05/09 04:05:49;;;;;;;5.55;1.58;;;9.20;91.00;;;;;;5040088;28;20537;-81
2022/05/09 04:08:17;;;;;;;7.60;1.95;;;9.20;90.80;;;;;;5036313;28;20053;-85
2022/05/09 04:10:45;;;;;;;2.90;1.80;;;9.20;90.80;;;;;;5050696;28;20464;-82
2022/05/09 04:13:11;;;;;;;4.30;2.38;;;9.20;90.90;;;;;;5041955;28;20026;-82
2022/05/09 04:18:25;;;;;;;4.90;2.97;;;9.20;91.00;;;;;;5053753;28;20048;-81
2022/05/09 04:20:51;;;;;;;9.05;2.63;;;9.30;91.00;;;;;;5042095;28;20454;-82
2022/05/09 04:23:18;;;;;;;5.63;1.92;;;9.30;91.20;;;;;;5033294;28;20063;-83
2022/05/09 04:25:44;;;;;;;6.07;2.50;;;9.30;91.20;;;;;;5045516;28;20424;-84
2022/05/09 04:28:10;;;;;;;7.97;2.90;;;9.30;91.30;;;;;;5055888;28;20033;-82
2022/05/09 04:30:38;;;;;;;5.50;2.85;;;9.40;91.30;;;;;;5030003;28;20025;-81
2022/05/09 04:33:06;;;;;;;3.15;2.45;;;9.40;91.40;;;;;;5039093;28;20022;-84
2022/05/09 04:35:33;;;;;;;4.88;2.58;;;9.40;91.40;;;;;;5029713;28;20041;-81
2022/05/09 04:37:59;;;;;;;5.65;2.50;;;9.40;91.60;;;;;;5029908;28;20095;-82
2022/05/09 04:40:28;;;;;;;3.25;2.10;;;9.40;91.60;;;;;;5030738;28;20025;-83
2022/05/09 04:42:54;;;;;;;6.40;2.03;;;9.50;91.70;;;;;;5031825;28;20030;-82
2022/05/09 04:45:20;;;;;;;5.43;2.30;;;9.50;91.70;;;;;;5039783;28;20033;-82
2022/05/09 04:47:46;;;;;;;3.28;2.00;;;9.50;91.60;;;;;;5059371;28;20029;-81
2022/05/09 04:50:14;;;;;;;6.00;2.80;;;9.60;91.80;;;;;;5050847;28;20134;-81
2022/05/09 04:52:40;;;;;;;4.60;2.60;;;9.60;91.90;;;;;;5033520;28;20030;-84
2022/05/09 04:55:06;;;;;;;8.27;2.70;;;9.70;91.90;;;;;;5038653;28;20512;-82
2022/05/09 04:57:31;;;;;;;5.47;2.03;;;9.70;91.90;;;;;;5030073;28;20029;-82
2022/05/09 04:59:58;;;;;;;5.50;2.95;;;9.70;92.00;;;;;;5030849;28;20033;-81
2022/05/09 05:02:23;;;;;;;5.50;2.50;;;9.80;92.00;;;;;;5042282;28;20046;-82
2022/05/09 05:04:49;;;;;;;5.57;2.95;;;9.90;92.00;;;;;;5037675;28;20033;-81
2022/05/09 05:07:15;;;;;;;8.45;2.70;;;9.90;91.90;;;;;;5041262;28;20025;-83
2022/05/09 05:09:40;;;;;;;6.78;2.40;;;10.00;91.90;;;;;;5041009;28;20072;-82
2022/05/09 05:12:06;;;;;;;5.32;2.65;;;10.00;91.90;;;;;;5027386;28;20017;-81
2022/05/09 05:14:32;;;;;;;9.25;2.40;;;10.10;91.70;;;;;;5031882;28;20045;-82
2022/05/09 05:17:00;;;;;;;6.93;2.22;;;10.20;91.70;;;;;;5031165;28;20038;-82
2022/05/09 05:19:36;;;;;;;6.45;3.25;;;10.30;91.50;;;;;;5040133;28;20028;-81
2022/05/09 05:22:03;;;;;;;11.32;2.70;;;10.30;91.10;;;;;;5041477;28;20048;-81
2022/05/09 05:24:33;;;;;;;5.63;2.35;;;10.30;90.80;;;;;;5041745;28;20071;-82
2022/05/09 05:26:58;;;;;;;7.55;2.90;;;10.40;90.80;;;;;;5040014;28;20121;-82
2022/05/09 05:29:24;;;;;;;9.48;2.70;;;10.50;91.00;;;;;;5048637;28;20489;-80
2022/05/09 05:31:50;;;;;;;6.13;2.47;;;10.60;90.70;;;;;;5055453;28;20032;-81
2022/05/09 05:34:16;;;;;;;7.68;2.10;;;10.70;90.30;;;;;;5040480;28;20029;-80
2022/05/09 05:36:41;;;;;;;10.43;3.55;;;10.80;90.30;;;;;;5055360;28;20028;-84
2022/05/09 05:39:09;;;;;;;9.00;2.33;;;10.80;90.10;;;;;;5063955;28;20024;-81
2022/05/09 05:41:35;;;;;;;7.18;2.60;;;10.90;90.20;;;;;;5036475;28;20025;-82
2022/05/09 05:44:01;;;;;;;7.53;2.05;;;11.00;90.00;;;;;;5030356;28;20049;-83
2022/05/09 05:46:26;;;;;;;6.32;2.70;;;11.10;89.50;;;;;;5030676;28;20088;-83
2022/05/09 05:48:52;;;;;;;7.28;2.30;;;11.10;89.10;;;;;;5032088;28;20466;-82
2022/05/09 05:51:18;;;;;;;7.70;1.80;;;11.10;89.10;;;;;;5038382;28;20300;-82
2022/05/09 05:53:45;;;;;;;6.45;2.20;;;11.20;88.70;;;;;;5041611;28;20021;-84
2022/05/09 05:56:11;;;;;;;5.47;2.22;;;11.40;89.00;;;;;;5059737;28;20036;-84
2022/05/09 05:58:37;;;;;;;6.72;2.35;;;11.50;88.10;;;;;;5062315;28;20417;-84
2022/05/09 06:01:03;;;;;;;14.70;2.85;;;11.60;87.50;;;;;;5039374;28;20095;-82
2022/05/09 06:03:29;;;;;;;6.60;2.00;;;11.60;86.90;;;;;;5051388;28;20029;-82
2022/05/09 06:05:54;;;;;;;11.80;2.83;;;11.80;86.80;;;;;;5038195;28;20033;-84
2022/05/09 06:08:20;;;;;;;6.40;2.20;;;11.90;86.20;;;;;;5045484;28;20020;-84
2022/05/09 06:10:47;;;;;;;8.43;2.30;;;12.00;87.00;;;;;;5037431;28;20346;-82
2022/05/09 06:13:12;;;;;;;5.93;2.00;;;12.10;87.40;;;;;;5045619;28;20021;-84
2022/05/09 06:15:38;;;;;;;10.13;3.03;;;12.20;87.10;;;;;;5050342;28;20037;-82
2022/05/09 06:18:08;;;;;;;6.72;2.03;;;12.30;85.90;;;;;;5050979;28;20070;-82
2022/05/09 06:20:36;;;;;;;6.28;2.33;;;12.40;85.90;;;;;;5050882;28;20035;-83
2022/05/09 06:23:03;;;;;;;6.82;2.03;;;12.50;86.00;;;;;;5049222;28;20180;-82
2022/05/09 06:25:31;;;;;;;12.85;2.50;;;12.50;85.70;;;;;;5049550;28;20107;-83
2022/05/09 06:27:58;;;;;;;6.32;2.10;;;12.60;86.60;;;;;;5049360;28;20021;-83
2022/05/09 06:30:24;;;;;;;8.20;2.42;;;12.70;85.80;;;;;;5047381;28;20093;-82
2022/05/09 06:32:50;;;;;;;3.70;1.73;;;12.90;84.70;;;;;;5051452;28;20036;-83
2022/05/09 06:35:23;;;;;;;5.25;1.88;;;13.00;84.90;;;;;;5058778;28;20028;-82
2022/05/09 06:37:50;;;;;;;7.72;1.88;;;13.00;84.40;;;;;;5050435;28;20153;-82
2022/05/09 06:40:17;;;;;;;6.30;2.33;;;13.10;85.20;;;;;;5050713;28;20025;-83
2022/05/09 06:42:43;;;;;;;5.95;2.15;;;13.20;85.50;;;;;;5050787;28;20025;-83
2022/05/09 06:45:10;;;;;;;8.38;2.22;;;13.30;85.40;;;;;;5050187;28;20124;-84
2022/05/09 06:47:44;;;;;;;9.90;2.55;;;13.40;84.30;;;;;;5048772;28;20021;-82
2022/05/09 06:50:10;;;;;;;5.25;2.13;;;13.40;83.70;;;;;;5043518;28;20040;-82
2022/05/09 06:52:36;;;;;;;4.65;2.22;;;13.50;83.10;;;;;;5052766;28;20104;-82
2022/05/09 06:55:02;;;;;;;5.50;2.17;;;13.50;83.30;;;;;;5051042;28;20079;-82
2022/05/09 06:57:28;;;;;;;6.72;2.50;;;13.60;84.00;;;;;;5050490;28;20025;-83
2022/05/09 06:59:53;;;;;;;8.35;3.13;;;13.70;84.00;;;;;;5051854;28;20036;-83
2022/05/09 07:02:19;;;;;;;8.13;2.67;;;13.90;83.10;;;;;;5032822;28;20037;-81
2022/05/09 07:04:44;;;;;;;8.63;2.90;;;14.00;82.80;;;;;;5032575;28;20092;-82
2022/05/09 07:07:10;;;;;;;12.15;2.60;;;14.20;81.90;;;;;;5044189;28;20029;-82
2022/05/09 07:09:35;;;;;;;7.65;2.50;;;14.30;82.90;;;;;;5038956;28;20469;-82
2022/05/09 07:12:01;;;;;;;9.20;2.30;;;14.40;82.50;;;;;;5044150;28;20025;-81
2022/05/09 07:14:26;;;;;;;4.95;2.30;;;14.50;81.90;;;;;;5038863;28;20013;-83
2022/05/09 07:16:52;;;;;;;5.18;2.10;;;14.70;82.50;;;;;;5031451;28;20052;-81
2022/05/09 07:19:17;;;;;;;11.38;2.47;;;14.90;80.80;;;;;;5033887;28;20622;-82
2022/05/09 07:21:43;;;;;;;6.13;2.13;;;15.10;81.20;;;;;;5047132;28;20074;-82
2022/05/09 07:24:09;;;;;;;6.35;2.20;;;15.20;80.00;;;;;;5039462;28;20032;-83
2022/05/09 07:26:36;;;;;;;5.47;2.05;;;15.40;79.20;;;;;;5032389;28;20030;-81
2022/05/09 07:29:03;;;;;;;5.63;1.98;;;15.50;79.90;;;;;;5040408;28;20022;-78
2022/05/09 07:31:29;;;;;;;6.03;1.90;;;15.70;79.10;;;;;;5026988;28;20025;-85
2022/05/09 07:33:54;;;;;;;8.57;2.53;;;15.90;79.50;;;;;;5044832;28;20031;-83
2022/05/09 07:36:21;;;;;;;5.32;2.13;;;16.10;79.40;;;;;;5046985;28;20028;-82
2022/05/09 07:38:46;;;;;;;9.68;2.72;;;16.40;77.60;;;;;;5047346;28;20021;-80
2022/05/09 07:41:12;;;;;;;5.88;2.78;;;16.50;76.90;;;;;;5031895;28;20029;-84
2022/05/09 07:43:37;;;;;;;6.78;2.25;;;16.70;76.20;;;;;;5028629;28;20112;-83
2022/05/09 07:46:03;;;;;;;4.35;1.52;;;16.90;76.90;;;;;;5029980;28;20201;-81
2022/05/09 07:48:29;;;;;;;11.30;2.50;;;17.00;75.10;;;;;;5039079;28;20067;-82
2022/05/09 07:50:56;;;;;;;11.50;2.65;;;17.20;73.20;;;;;;5041996;28;20029;-81
2022/05/09 07:53:25;;;;;;;7.85;2.33;;;17.30;73.40;;;;;;5037212;28;20038;-85
2022/05/09 07:55:51;;;;;;;3.70;1.55;;;17.50;74.50;;;;;;5031081;28;20044;-81
2022/05/09 07:58:17;;;;;;;7.20;2.22;;;17.60;73.30;;;;;;5037717;28;20037;-80
2022/05/09 08:00:44;;;;;;;5.28;2.17;;;17.80;72.30;;;;;;5039015;28;20025;-81
2022/05/09 08:03:19;;;;;;;6.15;2.30;;;17.80;71.00;;;;;;5044660;28;20094;-81
2022/05/09 08:05:44;;;;;;;7.68;1.95;;;17.80;71.10;;;;;;5042816;28;20045;-81
2022/05/09 08:08:10;;;;;;;6.65;1.65;;;17.80;70.90;;;;;;5027625;28;20021;-80
2022/05/09 08:10:38;;;;;;;4.80;1.42;;;17.70;71.30;;;;;;5047766;28;20032;-80
2022/05/09 08:13:05;;;;;;;3.67;1.50;;;17.90;72.20;;;;;;5047374;28;20044;-81
2022/05/09 08:15:31;;;;;;;5.32;2.50;;;18.10;72.90;;;;;;5047458;28;20465;-83
2022/05/09 08:17:58;;;;;;;5.65;1.90;;;18.30;72.70;;;;;;5047417;28;20612;-81
2022/05/09 08:20:24;;;;;;;3.95;2.13;;;18.50;69.60;;;;;;5044560;28;20458;-83
2022/05/09 08:22:58;;;;;;;6.70;1.92;;;18.60;69.40;;;;;;5035875;28;20021;-82
2022/05/09 08:25:24;;;;;;;6.93;2.40;;;18.70;71.10;;;;;;5047441;28;20060;-81
2022/05/09 08:27:50;;;;;;;4.15;1.95;;;18.70;67.70;;;;;;5048060;28;20029;-83
2022/05/09 08:30:15;;;;;;;7.95;2.00;;;18.80;69.20;;;;;;5045992;28;20013;-81
2022/05/09 08:32:42;;;;;;;3.75;1.67;;;18.80;69.20;;;;;;5035695;28;20029;-82
2022/05/09 08:35:09;;;;;;;6.82;2.45;;;19.00;70.80;;;;;;5045183;28;20445;-81
2022/05/09 08:37:35;;;;;;;7.72;1.92;;;19.10;66.60;;;;;;5041675;28;20374;-80
2022/05/09 08:40:02;;;;;;;4.20;1.85;;;18.90;66.30;;;;;;5036288;28;20032;-81
2022/05/09 08:42:57;;;;;;;4.72;1.48;;;18.80;67.90;;;;;;5032199;28;20030;-80
2022/05/09 08:45:32;;;;;;;7.57;2.78;;;18.80;69.20;;;;;;5039752;28;20545;-81
2022/05/09 08:48:24;;;;;;;3.97;1.90;;;18.80;69.30;;;;;;5047624;28;20019;-81
2022/05/09 08:51:05;;;;;;;6.35;1.85;;;18.90;68.60;;;;;;5049470;28;20335;-81
2022/05/09 08:53:35;;;;;;;6.50;2.03;;;19.10;69.30;;;;;;5052338;28;20074;-82
2022/05/09 08:56:01;;;;;;;6.65;2.05;;;19.30;66.80;;;;;;5062214;28;20029;-82
2022/05/09 08:58:49;;;;;;;4.68;1.60;;;19.50;66.50;;;;;;5052411;28;20074;-80
2022/05/09 09:01:31;;;;;;;4.25;1.77;;;19.80;68.50;;;;;;5052311;28;20135;-82
2022/05/09 09:04:00;;;;;;;4.50;2.13;;;20.00;67.30;;;;;;5052795;28;20377;-81
2022/05/09 09:06:47;;;;;;;5.68;2.40;;;20.10;67.20;;;;;;5060813;28;20029;-80
2022/05/09 09:09:38;;;;;;;11.25;2.10;;;20.30;66.90;;;;;;5045480;28;20046;-84
2022/05/09 09:12:12;;;;;;;6.40;2.03;;;20.40;68.60;;;;;;5043719;28;20031;-82
2022/05/09 09:14:51;;;;;;;7.85;2.95;;;20.60;67.60;;;;;;5039637;28;20109;-81
2022/05/09 09:17:35;;;;;;;4.60;1.83;;;20.60;68.90;;;;;;5035961;28;20408;-81
2022/05/09 09:20:25;;;;;;;4.35;2.08;;;20.80;67.60;;;;;;5064119;28;20107;-82
2022/05/09 09:23:18;;;;;;;9.52;2.05;;;20.90;68.40;;;;;;5047217;28;20025;-81
2022/05/09 09:26:07;;;;;;;5.82;1.98;;;21.10;68.20;;;;;;5042217;28;20040;-81
2022/05/09 09:28:47;;;;;;;4.80;2.28;;;21.10;66.00;;;;;;5046136;28;20021;-80
2022/05/09 09:31:17;;;;;;;7.30;1.92;;;21.20;65.60;;;;;;5032764;28;20029;-81
2022/05/09 09:33:57;;;;;;;4.78;1.73;;;20.90;65.70;;;;;;5040408;28;20033;-81
2022/05/09 09:36:30;;;;;;;5.57;2.08;;;21.00;67.80;;;;;;5044825;28;20104;-81
2022/05/09 09:39:07;;;;;;;5.03;2.17;;;21.00;66.30;;;;;;5045499;28;20025;-81
2022/05/09 09:41:35;;;;;;;4.88;1.75;;;21.20;66.20;;;;;;5048109;28;20036;-81
2022/05/09 09:44:13;;;;;;;4.55;1.60;;;21.40;65.00;;;;;;5035497;28;20424;-81
2022/05/09 09:47:09;;;;;;;8.02;2.25;;;21.50;66.20;;;;;;5035237;28;20521;-80
2022/05/09 09:49:41;;;;;;;8.05;2.00;;;21.50;64.10;;;;;;5045886;28;20112;-80
2022/05/09 09:52:29;;;;;;;5.83;1.93;;;21.50;64.10;;;;;;5044371;28;20014;-82
2022/05/09 09:55:00;;;;;;;6.88;2.20;;;21.70;70.20;;;;;;5048839;28;20267;-81
2022/05/09 09:57:35;;;;;;;6.70;1.90;;;21.90;65.10;;;;;;5049194;28;20071;-81
2022/05/09 10:00:18;;;;;;;5.63;1.98;;;22.00;68.20;;;;;;5056594;28;20051;-80
2022/05/09 10:02:44;;;;;;;9.05;2.22;;;22.30;68.30;;;;;;5054281;28;20068;-82
2022/05/09 10:05:13;;;;;;;4.93;1.35;;;22.50;70.70;;;;;;5044425;28;20469;-83
2022/05/09 10:07:43;;;;;;;7.05;1.83;;;22.80;64.30;;;;;;5049514;28;20142;-83
2022/05/09 10:10:14;;;;;;;4.80;2.13;;;22.80;63.10;;;;;;5044140;28;20037;-80
2022/05/09 10:12:47;;;;;;;9.23;2.13;;;22.90;63.50;;;;;;5040643;28;20025;-80
2022/05/09 10:15:34;;;;;;;4.60;1.75;;;22.60;63.70;;;;;;5050190;28;20029;-80
2022/05/09 10:18:16;;;;;;;3.72;1.75;;;22.60;65.60;;;;;;5050487;28;20028;-80
2022/05/09 10:20:41;;;;;;;6.82;1.88;;;22.50;64.40;;;;;;5049097;28;20130;-80
2022/05/09 10:26:13;;;;;;;11.52;2.15;;;22.70;63.40;;;;;;5047324;28;20061;-82
2022/05/09 10:28:45;;;;;;;7.07;2.40;;;22.50;63.10;;;;;;5030447;28;20075;-82
2022/05/09 10:31:20;;;;;;;4.25;1.67;;;22.40;63.30;;;;;;5029909;28;20086;-79
2022/05/09 10:33:55;;;;;;;8.23;2.10;;;22.50;63.60;;;;;;5035477;28;20025;-79
2022/05/09 10:36:24;;;;;;;7.15;1.40;;;22.70;63.20;;;;;;5049175;28;20021;-82
2022/05/09 10:39:17;;;;;;;6.72;1.95;;;22.80;63.90;;;;;;5035752;28;20021;-81
2022/05/09 10:41:49;;;;;;;3.78;1.50;;;22.80;65.40;;;;;;5045891;28;20033;-82
2022/05/09 10:44:28;;;;;;;5.68;1.88;;;23.00;63.30;;;;;;5049462;28;20029;-82
2022/05/09 10:47:01;;;;;;;8.48;1.63;;;22.90;64.80;;;;;;5049108;28;20025;-81
2022/05/09 10:49:33;;;;;;;;;;;22.80;63.80;;;;;;5047209;28;20497;-81
2022/05/09 10:52:13;;;;;;;5.68;1.50;;;23.00;62.40;;;;;;5049445;28;20662;-81
2022/05/09 10:54:48;;;;;;;4.80;1.80;;;23.10;62.80;;;;;;5035868;28;20633;-80
2022/05/09 10:57:20;;;;;;;5.43;1.63;;;23.40;61.10;;;;;;5046057;28;20025;-78
2022/05/09 10:59:46;;;;;;;4.15;1.33;;;23.50;62.70;;;;;;5030037;28;20492;-79
2022/05/09 11:02:25;;;;;;;8.50;3.15;;;23.50;58.70;;;;;;5030032;28;20017;-80
2022/05/09 11:04:50;;;;;;;5.65;1.50;;;23.40;61.60;;;;;;5029509;28;20124;-83
2022/05/09 11:07:21;;;;;;;5.88;1.20;;;23.60;61.20;;;;;;5041073;28;20104;-79
2022/05/09 11:10:08;;;;;;;4.20;1.50;;;23.90;60.10;;;;;;5048675;28;20029;-78
2022/05/09 11:12:42;;;;;;;7.15;2.40;;;24.10;60.70;;;;;;5033895;28;20080;-78
2022/05/09 11:15:32;;;;;;;4.72;1.48;;;24.30;57.80;;;;;;5048911;28;20039;-80
2022/05/09 11:18:20;;;;;;;4.57;1.52;;;24.40;57.10;;;;;;5046130;28;20028;-78
2022/05/09 11:21:16;;;;;;;5.68;1.88;;;24.50;56.70;;;;;;5039847;28;20026;-80
2022/05/09 11:23:45;;;;;;;4.13;1.17;;;24.70;58.30;;;;;;5039054;28;20041;-80
2022/05/09 11:26:22;;;;;;;2.33;1.25;;;24.80;55.80;;;;;;5029094;28;20620;-78
2022/05/09 11:29:10;;;;;;;1.90;1.02;;;24.50;56.30;;;;;;5043482;28;20454;-81
2022/05/09 11:31:57;;;;;;;5.55;1.42;;;24.60;55.90;;;;;;5039680;28;20033;-79
2022/05/09 11:34:39;;;;;;;3.25;1.27;;;24.70;54.60;;;;;;5048907;28;20060;-79
2022/05/09 11:37:24;;;;;;;3.53;1.00;;;24.70;54.50;;;;;;5047911;28;20028;-79
2022/05/09 11:40:19;;;;;;;3.95;1.55;;;24.50;54.10;;;;;;5047157;28;20033;-80
2022/05/09 11:43:28;;;;;;;1.65;1.05;;;24.40;52.80;;;;;;5048600;28;20032;-78
2022/05/09 11:46:16;;;;;;;5.15;1.45;;;24.20;54.70;;;;;;5046013;28;20136;-78
2022/05/09 11:49:11;;;;;;;2.35;0.90;;;24.50;57.60;;;;;;5027082;28;20510;-78
2022/05/09 11:51:44;;;;;;;2.97;1.20;;;24.50;55.30;;;;;;5046740;28;20039;-79
2022/05/09 11:54:18;;;;;;;3.63;1.45;;;24.70;52.40;;;;;;5044926;28;20037;-78
2022/05/09 11:56:48;;;;;;;7.15;1.55;;;24.80;54.80;;;;;;5041866;28;20395;-78
2022/05/09 11:59:21;;;;;;;5.88;1.60;;;25.10;53.60;;;;;;5039115;28;20021;-82
2022/05/09 12:01:55;;;;;;;3.83;1.30;;;25.30;53.20;;;;;;5047405;28;20365;-80
2022/05/09 12:04:43;;;;;;;3.58;1.30;;;25.40;51.50;;;;;;5029011;28;20029;-81
2022/05/09 12:07:29;;;;;;;4.10;1.13;;;25.40;52.10;;;;;;5031399;28;20072;-79
2022/05/09 12:10:03;;;;;;;2.03;1.00;;;25.40;55.00;;;;;;5037582;28;20366;-80
2022/05/09 12:12:38;;;;;;;3.70;1.25;;;25.50;51.60;;;;;;5041247;28;20047;-78
2022/05/09 12:15:06;;;;;;;4.35;1.13;;;25.40;51.30;;;;;;5047727;28;20547;-78
2022/05/09 12:17:37;;;;;;;3.05;1.40;;;25.40;50.70;;;;;;5047725;28;20424;-78
2022/05/09 12:20:09;;;;;;;5.47;1.10;;;25.60;52.10;;;;;;5063347;28;20124;-79
2022/05/09 12:22:42;;;;;;;2.67;1.38;;;25.80;54.10;;;;;;5037028;28;20063;-79
2022/05/09 12:25:28;;;;;;;6.38;1.30;;;25.90;50.30;;;;;;5047808;28;20056;-79
2022/05/09 12:28:03;;;;;;;2.58;1.13;;;25.70;53.90;;;;;;5032665;28;20025;-78
2022/05/09 12:30:49;;;;;;;2.50;1.10;;;25.70;51.30;;;;;;5035645;28;20017;-78
2022/05/09 12:33:32;;;;;;;3.33;1.20;;;25.80;53.70;;;;;;5052359;28;20031;-79
2022/05/09 12:36:03;;;;;;;7.50;1.30;;;25.90;52.40;;;;;;5051604;28;20354;-79
2022/05/09 12:38:33;;;;;;;4.50;1.35;;;25.80;51.00;;;;;;5035899;28;20079;-78
2022/05/09 12:41:12;;;;;;;4.57;1.17;;;25.80;51.10;;;;;;5051713;28;20444;-79
2022/05/09 12:43:42;;;;;;;3.13;1.38;;;26.00;54.10;;;;;;5051300;28;20451;-78
2022/05/09 12:46:21;;;;;;;3.65;0.93;;;26.10;54.80;;;;;;5040906;28;20033;-80
2022/05/09 12:48:48;;;;;;;3.08;0.93;;;26.20;50.50;;;;;;5061433;28;20102;-79
2022/05/09 12:51:14;;;;;;;2.80;1.17;;;26.30;53.20;;;;;;5068181;28;20021;-79
2022/05/09 12:53:41;;;;;;;5.13;1.73;;;26.40;52.10;;;;;;5052650;28;20044;-79
2022/05/09 12:56:11;;;;;;;3.88;1.15;;;26.50;51.90;;;;;;5049910;28;20085;-80
2022/05/09 12:58:39;;;;;;;4.80;1.40;;;26.50;51.30;;;;;;5030082;28;20029;-81
2022/05/09 13:01:14;;;;;;;3.45;1.33;;;26.50;54.00;;;;;;5031777;28;20026;-78
2022/05/09 13:03:58;;;;;;;8.00;1.23;;;26.70;51.00;;;;;;5032371;28;20043;-79
2022/05/09 13:06:29;;;;;;;3.97;1.27;;;26.70;51.70;;;;;;5035464;28;20041;-80
2022/05/09 13:08:55;;;;;;;5.88;1.85;;;26.60;51.70;;;;;;5050971;28;20474;-80
2022/05/09 13:11:25;;;;;;;5.13;1.40;;;26.70;50.90;;;;;;5051632;28;20043;-79
2022/05/09 13:14:07;;;;;;;4.55;1.30;;;26.60;50.00;;;;;;5052105;28;20527;-79